Time;durP1;ratioP1;P1;durP2;ratioP2;P2;SDS_P1;SDS_P2;PMS_P1;PMS_P2;Temp;Humidity;BMP_temperature;BMP_pressure;BME280_temperature;BME280_humidity;BME280_pressure;Samples;Min_cycle;Max_cycle;Signal;HPM_P1;HPM_P2
2022/04/01 00:00:43;;;;;;;6.72;6.03;;;;;;;1.33;87.90;100060.84;5010455;28;20021;-72
2022/04/01 00:03:09;;;;;;;6.85;6.15;;;;;;;1.31;87.93;100065.53;5013047;28;20037;-73
2022/04/01 00:05:35;;;;;;;6.75;5.75;;;;;;;1.32;87.68;100061.88;5012876;28;20037;-72
2022/04/01 00:08:00;;;;;;;6.40;5.80;;;;;;;1.28;87.94;100063.25;5012992;28;20037;-72
2022/04/01 00:10:27;;;;;;;6.13;5.18;;;;;;;1.22;87.65;100056.81;5012413;28;20389;-72
2022/04/01 00:12:52;;;;;;;6.03;5.35;;;;;;;1.15;88.43;100067.38;5012473;28;20033;-72
2022/04/01 00:15:18;;;;;;;5.95;5.35;;;;;;;1.13;87.91;100064.06;5012735;28;20037;-72
2022/04/01 00:17:44;;;;;;;7.25;5.30;;;;;;;1.12;88.40;100078.41;5012704;28;20470;-72
2022/04/01 00:20:13;;;;;;;6.25;5.03;;;;;;;1.15;87.49;100083.38;5012763;28;20088;-72
2022/04/01 00:22:39;;;;;;;6.78;5.35;;;;;;;1.13;88.18;100079.22;5012471;28;20033;-72
2022/04/01 00:25:05;;;;;;;6.25;5.20;;;;;;;1.12;88.58;100075.75;5012490;28;20030;-72
2022/04/01 00:27:30;;;;;;;5.50;4.85;;;;;;;1.14;87.50;100089.69;5012153;28;20061;-72
2022/04/01 00:29:56;;;;;;;6.20;4.60;;;;;;;1.09;87.60;100089.44;5012393;28;20034;-72
2022/04/01 00:32:21;;;;;;;5.80;4.70;;;;;;;1.05;87.54;100080.13;5012691;28;20041;-73
2022/04/01 00:34:48;;;;;;;5.03;4.50;;;;;;;0.96;88.12;100079.38;5012435;28;20025;-72
2022/04/01 00:37:14;;;;;;;5.85;4.55;;;;;;;0.96;88.40;100089.22;5012685;28;20476;-72
2022/04/01 00:39:39;;;;;;;5.13;4.60;;;;;;;0.92;88.53;100094.09;5012221;28;20054;-73
2022/04/01 00:42:05;;;;;;;6.25;4.50;;;;;;;0.87;88.36;100089.28;5012349;28;20038;-73
2022/04/01 00:44:36;;;;;;;7.45;4.97;;;;;;;0.83;88.23;100095.16;5012354;28;20041;-73
2022/04/01 00:47:09;;;;;;;6.32;4.88;;;;;;;0.78;89.00;100100.19;5012416;28;20034;-73
2022/04/01 00:49:35;;;;;;;5.40;4.72;;;;;;;0.76;88.44;100095.06;5027744;28;20061;-73
2022/04/01 00:52:03;;;;;;;5.00;4.50;;;;;;;0.77;88.75;100103.84;5012175;28;20049;-73
2022/04/01 00:54:29;;;;;;;7.40;4.93;;;;;;;0.72;89.46;100103.56;5012512;28;20041;-73
2022/04/01 00:56:55;;;;;;;5.13;4.40;;;;;;;0.69;89.59;100102.09;5012021;28;20046;-73
2022/04/01 00:59:21;;;;;;;6.47;4.50;;;;;;;0.73;89.52;100111.38;5015876;28;20030;-73
2022/04/01 01:01:48;;;;;;;7.68;4.82;;;;;;;0.71;88.89;100097.44;5013551;28;20370;-73
2022/04/01 01:04:16;;;;;;;5.78;4.68;;;;;;;0.74;89.62;100106.88;5015905;28;20157;-73
2022/04/01 01:06:46;;;;;;;5.53;4.65;;;;;;;0.79;89.59;100109.84;5015001;28;20030;-73
2022/04/01 01:09:13;;;;;;;7.30;4.80;;;;;;;0.79;89.12;100110.66;5030880;28;20026;-72
2022/04/01 01:11:40;;;;;;;6.90;4.45;;;;;;;0.81;88.51;100108.66;5015668;28;20041;-73
2022/04/01 01:14:08;;;;;;;5.00;4.50;;;;;;;0.83;88.96;100111.13;5015907;28;20080;-73
2022/04/01 01:16:34;;;;;;;5.03;4.53;;;;;;;0.89;89.14;100110.41;5016070;28;20203;-72
2022/04/01 01:19:07;;;;;;;6.50;4.65;;;;;;;0.90;88.98;100114.75;5015662;28;20025;-72
2022/04/01 01:21:34;;;;;;;5.10;3.85;;;;;;;0.85;88.72;100107.28;5015980;28;20034;-71
2022/04/01 01:24:07;;;;;;;5.78;3.95;;;;;;;0.88;88.51;100116.75;5015580;28;20500;-72
2022/04/01 01:26:34;;;;;;;4.68;4.18;;;;;;;0.86;88.36;100116.94;5015800;28;20026;-72
2022/04/01 01:29:00;;;;;;;4.70;3.78;;;;;;;0.80;88.54;100119.47;5015306;28;20037;-72
2022/04/01 01:31:26;;;;;;;5.40;4.25;;;;;;;0.78;89.30;100108.19;5015810;28;20387;-72
2022/04/01 01:34:11;;;;;;;7.15;4.28;;;;;;;0.81;89.02;100119.28;5013549;28;20604;-72
2022/04/01 01:36:36;;;;;;;6.50;3.92;;;;;;;0.78;88.72;100113.50;5015154;28;20440;-72
2022/04/01 01:39:01;;;;;;;5.53;4.20;;;;;;;0.73;89.04;100119.38;5030355;28;20125;-72
2022/04/01 01:41:27;;;;;;;6.68;4.30;;;;;;;0.68;88.78;100108.41;5015414;28;20033;-72
2022/04/01 01:43:53;;;;;;;5.88;4.32;;;;;;;0.73;88.87;100116.72;5015202;28;20462;-72
2022/04/01 01:46:19;;;;;;;5.55;4.00;;;;;;;0.73;89.29;100121.22;5015414;28;20037;-72
2022/04/01 01:48:44;;;;;;;6.40;4.38;;;;;;;0.75;88.40;100114.69;5014924;28;20034;-72
2022/04/01 01:56:40;;;;;;;5.18;4.20;;;;;;;0.83;88.27;100127.97;4995571;28;20129;-72
2022/04/01 01:59:06;;;;;;;6.93;4.50;;;;;;;0.79;88.49;100123.16;4995580;28;20034;-72
2022/04/01 02:01:32;;;;;;;5.03;4.07;;;;;;;0.77;88.71;100120.69;4993315;28;20030;-72
2022/04/01 02:03:59;;;;;;;5.05;4.30;;;;;;;0.81;88.52;100135.28;4994247;28;20060;-72
2022/04/01 02:06:24;;;;;;;5.38;4.03;;;;;;;0.81;87.85;100137.13;4995467;28;20046;-72
2022/04/01 02:08:51;;;;;;;5.75;4.30;;;;;;;0.80;88.01;100133.66;4996109;28;20033;-72
2022/04/01 02:11:17;;;;;;;5.93;4.25;;;;;;;0.74;88.75;100139.69;5014405;28;20034;-72
2022/04/01 02:13:45;;;;;;;5.28;4.75;;;;;;;0.68;88.48;100127.91;5014763;28;20030;-72
2022/04/01 02:16:10;;;;;;;5.70;4.55;;;;;;;0.64;89.03;100139.09;5014903;28;20095;-72
2022/04/01 02:18:35;;;;;;;6.50;4.90;;;;;;;0.65;88.91;100138.06;5014953;28;20512;-72
2022/04/01 02:21:01;;;;;;;6.40;4.30;;;;;;;0.59;88.47;100139.63;5013632;28;20033;-72
2022/04/01 02:23:26;;;;;;;5.80;4.65;;;;;;;0.60;88.84;100143.09;5014833;28;20071;-72
2022/04/01 02:25:52;;;;;;;5.50;4.50;;;;;;;0.62;89.04;100136.59;5014277;28;20030;-72
2022/04/01 02:28:17;;;;;;;6.20;4.60;;;;;;;0.64;89.13;100149.75;5014630;28;20049;-72
2022/04/01 02:30:43;;;;;;;5.13;4.63;;;;;;;0.67;88.51;100152.06;5014753;28;20025;-72
2022/04/01 02:33:08;;;;;;;5.03;4.53;;;;;;;0.65;88.65;100151.38;5014408;28;20030;-72
2022/04/01 02:35:33;;;;;;;5.20;4.70;;;;;;;0.56;89.28;100152.44;5014957;28;20038;-72
2022/04/01 02:37:58;;;;;;;5.90;4.50;;;;;;;0.53;89.35;100151.81;5014340;28;20025;-72
2022/04/01 02:40:24;;;;;;;4.72;4.22;;;;;;;0.57;88.86;100160.25;5012865;28;20071;-72
2022/04/01 02:42:53;;;;;;;5.15;4.57;;;;;;;0.64;89.02;100153.22;5012551;28;20431;-72
2022/04/01 02:45:24;;;;;;;5.18;4.68;;;;;;;0.67;88.85;100160.03;5014288;28;20112;-72
2022/04/01 02:47:49;;;;;;;5.43;4.30;;;;;;;0.67;88.53;100165.38;5012790;28;20465;-72
2022/04/01 02:50:14;;;;;;;5.40;4.50;;;;;;;0.68;89.25;100167.00;5014255;28;20083;-72
2022/04/01 02:52:40;;;;;;;6.22;4.68;;;;;;;0.70;88.26;100180.97;5013777;28;20073;-72
2022/04/01 02:55:06;;;;;;;4.90;4.20;;;;;;;0.73;88.93;100174.47;5012637;28;20033;-72
2022/04/01 02:57:33;;;;;;;6.43;5.32;;;;;;;0.66;89.02;100172.50;5013672;28;20116;-72
2022/04/01 02:59:58;;;;;;;5.65;4.53;;;;;;;0.66;88.37;100179.66;5013856;28;20066;-72
2022/04/01 03:02:24;;;;;;;5.10;4.60;;;;;;;0.63;89.22;100182.69;5011479;28;20068;-72
2022/04/01 03:04:49;;;;;;;7.18;4.55;;;;;;;0.66;88.00;100190.31;5012479;28;20033;-72
2022/04/01 03:07:14;;;;;;;5.03;4.53;;;;;;;0.63;88.21;100183.50;5013776;28;20029;-72
2022/04/01 03:09:40;;;;;;;7.47;4.82;;;;;;;0.65;89.02;100194.84;5012586;28;20037;-72
2022/04/01 03:12:07;;;;;;;5.75;4.65;;;;;;;0.67;88.68;100199.97;5013469;28;20385;-72
2022/04/01 03:14:32;;;;;;;5.20;4.70;;;;;;;0.67;87.95;100192.81;5013969;28;20454;-72
2022/04/01 03:16:58;;;;;;;7.82;5.55;;;;;;;0.59;88.69;100192.03;5014019;28;20042;-72
2022/04/01 03:19:23;;;;;;;6.22;5.63;;;;;;;0.62;88.23;100192.53;5013745;28;20564;-72
2022/04/01 03:21:49;;;;;;;7.05;6.30;;;;;;;0.61;88.27;100195.34;5013131;28;20034;-72
2022/04/01 03:24:16;;;;;;;7.63;6.05;;;;;;;0.58;88.70;100198.38;5012235;28;20056;-72
2022/04/01 03:26:41;;;;;;;8.55;6.68;;;;;;;0.53;88.38;100202.38;5013322;28;20596;-72
2022/04/01 03:29:08;;;;;;;7.03;6.32;;;;;;;0.49;88.78;100217.03;5013209;28;20051;-72
2022/04/01 03:31:35;;;;;;;7.60;6.35;;;;;;;0.40;88.82;100212.78;5013206;28;20407;-72
2022/04/01 03:34:00;;;;;;;7.63;6.38;;;;;;;0.44;89.09;100218.56;5013348;28;20385;-73
2022/04/01 03:36:25;;;;;;;8.18;6.80;;;;;;;0.42;88.73;100216.06;5013277;28;20038;-72
2022/04/01 03:38:51;;;;;;;8.05;6.97;;;;;;;0.40;88.88;100226.06;5013313;28;20037;-72
2022/04/01 03:41:19;;;;;;;7.88;6.68;;;;;;;0.41;89.63;100232.22;5012959;28;20040;-72
2022/04/01 03:43:45;;;;;;;9.82;6.90;;;;;;;0.43;89.17;100222.25;5028523;28;20386;-72
2022/04/01 03:46:13;;;;;;;8.07;6.85;;;;;;;0.42;88.88;100229.38;5013055;28;20033;-72
2022/04/01 03:49:07;;;;;;;8.70;7.22;;;;;;;0.43;89.78;100232.91;5013534;28;20033;-72
2022/04/01 03:51:34;;;;;;;11.88;7.75;;;;;;;0.33;89.19;100223.28;5005431;28;20398;-72
2022/04/01 03:54:02;;;;;;;9.57;8.10;;;;;;;0.34;89.92;100234.75;5012971;28;20030;-72
2022/04/01 03:56:37;;;;;;;8.25;7.32;;;;;;;0.39;90.39;100237.72;5012560;28;20113;-72
2022/04/01 03:59:05;;;;;;;8.43;6.95;;;;;;;0.36;89.96;100232.75;5011506;28;20048;-72
2022/04/01 04:01:31;;;;;;;7.10;6.40;;;;;;;0.32;89.91;100242.91;5009410;28;20400;-72
2022/04/01 04:03:57;;;;;;;7.40;6.50;;;;;;;0.34;89.51;100240.91;5012931;28;20395;-72
2022/04/01 04:06:24;;;;;;;14.18;8.05;;;;;;;0.40;89.84;100244.72;5012670;28;20137;-72
2022/04/01 04:08:53;;;;;;;10.95;6.78;;;;;;;0.37;90.09;100246.91;5012599;28;20069;-72
2022/04/01 04:11:23;;;;;;;7.10;5.72;;;;;;;0.37;89.71;100258.38;5012550;28;20041;-72
2022/04/01 04:13:51;;;;;;;8.23;6.45;;;;;;;0.37;90.20;100255.69;5013056;28;20038;-72
2022/04/01 04:16:19;;;;;;;6.97;6.28;;;;;;;0.38;89.87;100268.03;5012886;28;20040;-72
2022/04/01 04:18:51;;;;;;;8.48;6.00;;;;;;;0.36;89.49;100259.34;5013087;28;20523;-72
2022/04/01 04:21:16;;;;;;;8.98;6.75;;;;;;;0.38;89.79;100268.03;5012966;28;20373;-72
2022/04/01 04:23:46;;;;;;;8.57;5.90;;;;;;;0.36;89.72;100270.00;5012826;28;20038;-72
2022/04/01 04:26:21;;;;;;;6.75;5.70;;;;;;;0.35;89.30;100265.72;5012050;28;20362;-72
2022/04/01 04:28:50;;;;;;;6.80;6.10;;;;;;;0.35;89.71;100279.00;5012413;28;20121;-72
2022/04/01 04:31:23;;;;;;;8.57;5.88;;;;;;;0.38;89.30;100284.00;5012513;28;20041;-72
2022/04/01 04:33:54;;;;;;;7.65;5.70;;;;;;;0.40;89.55;100283.81;5018124;28;20036;-72
2022/04/01 04:36:27;;;;;;;6.40;5.80;;;;;;;0.40;89.10;100291.81;5017744;28;20469;-72
2022/04/01 04:38:55;;;;;;;6.93;5.93;;;;;;;0.35;89.31;100294.97;5018944;28;20048;-72
2022/04/01 04:41:21;;;;;;;7.88;5.85;;;;;;;0.31;89.39;100298.97;5017408;28;20371;-72
2022/04/01 04:43:50;;;;;;;9.98;7.63;;;;;;;0.30;90.15;100305.28;5017664;28;20367;-73
2022/04/01 04:46:16;;;;;;;9.77;6.55;;;;;;;0.32;89.50;100309.44;5018917;28;20066;-72
2022/04/01 04:48:42;;;;;;;8.80;6.82;;;;;;;0.27;89.27;100317.13;5018842;28;20477;-72
2022/04/01 04:51:09;;;;;;;8.82;6.93;;;;;;;0.29;90.08;100316.97;5018548;28;20030;-72
2022/04/01 04:53:35;;;;;;;8.10;6.75;;;;;;;0.31;89.67;100312.28;5018823;28;20033;-72
2022/04/01 04:56:04;;;;;;;8.63;6.97;;;;;;;0.37;89.89;100332.88;5017151;28;20385;-72
2022/04/01 04:58:40;;;;;;;8.82;6.70;;;;;;;0.42;89.72;100338.53;5018901;28;20398;-72
2022/04/01 05:01:21;;;;;;;7.25;6.22;;;;;;;0.35;88.78;100338.38;4998558;28;20417;-73
2022/04/01 05:03:56;;;;;;;9.07;6.60;;;;;;;0.32;89.33;100338.72;5018897;28;20109;-73
2022/04/01 05:06:30;;;;;;;7.43;6.32;;;;;;;0.34;89.28;100346.53;5017470;28;20022;-73
2022/04/01 05:09:04;;;;;;;8.10;6.45;;;;;;;0.31;89.03;100350.38;5018714;28;20030;-72
2022/04/01 05:11:51;;;;;;;7.97;6.45;;;;;;;0.34;89.05;100358.00;5017549;28;20049;-73
2022/04/01 05:14:32;;;;;;;6.97;5.90;;;;;;;0.32;89.14;100359.19;5018364;28;20116;-73
2022/04/01 05:17:04;;;;;;;6.93;6.15;;;;;;;0.28;88.81;100368.53;5033628;28;20033;-73
2022/04/01 05:19:31;;;;;;;7.22;6.05;;;;;;;0.25;88.21;100360.88;5018635;28;20393;-73
2022/04/01 05:22:07;;;;;;;8.18;6.40;;;;;;;0.28;88.44;100364.00;5033610;28;20068;-73
2022/04/01 05:24:37;;;;;;;7.40;5.93;;;;;;;0.31;88.38;100376.16;5018333;28;20497;-73
2022/04/01 05:27:04;;;;;;;9.70;5.78;;;;;;;0.30;88.47;100371.81;5018559;28;20168;-73
2022/04/01 05:29:36;;;;;;;7.80;6.28;;;;;;;0.34;87.50;100375.81;5018748;28;20040;-73
2022/04/01 05:32:06;;;;;;;12.52;6.80;;;;;;;0.32;88.04;100380.50;5017585;28;20128;-73
2022/04/01 05:34:45;;;;;;;22.65;8.90;;;;;;;0.31;88.06;100384.97;5001280;28;20595;-72
2022/04/01 05:37:11;;;;;;;7.93;6.28;;;;;;;0.30;87.60;100387.78;5018163;28;20175;-73
2022/04/01 05:39:38;;;;;;;7.63;6.55;;;;;;;0.29;88.37;100378.19;5018813;28;20037;-73
2022/04/01 05:42:09;;;;;;;8.13;6.63;;;;;;;0.32;87.63;100396.47;5018465;28;20033;-73
2022/04/01 05:44:36;;;;;;;9.32;6.30;;;;;;;0.37;87.17;100398.63;5016647;28;20030;-73
2022/04/01 05:47:03;;;;;;;8.00;6.47;;;;;;;0.37;87.89;100409.25;5014762;28;20100;-72
2022/04/01 05:49:28;;;;;;;7.47;6.32;;;;;;;0.33;87.25;100411.41;5008632;28;20046;-72
2022/04/01 05:51:55;;;;;;;10.82;6.47;;;;;;;0.31;87.77;100414.25;4995926;28;20099;-72
2022/04/01 05:54:22;;;;;;;6.68;5.97;;;;;;;0.33;86.55;100425.56;4995092;28;20045;-72
2022/04/01 05:56:49;;;;;;;8.75;6.60;;;;;;;0.32;87.05;100433.72;4995725;28;20030;-74
2022/04/01 05:59:19;;;;;;;10.60;6.80;;;;;;;0.28;86.95;100422.56;5010873;28;20045;-74
2022/04/01 06:02:09;;;;;;;7.85;6.00;;;;;;;0.32;87.02;100428.41;5011167;28;20037;-78
2022/04/01 06:05:05;;;;;;;7.63;6.15;;;;;;;0.28;87.37;100437.72;5013183;28;20476;-76
2022/04/01 06:07:44;;;;;;;7.35;6.28;;;;;;;0.34;87.07;100442.34;5014021;28;20042;-76
2022/04/01 06:10:50;;;;;;;9.15;6.35;;;;;;;0.36;87.38;100443.00;5030071;28;20034;-76
2022/04/01 06:13:35;;;;;;;8.35;6.43;;;;;;;0.34;86.77;100458.34;4975271;28;20056;-72
2022/04/01 06:16:37;;;;;;;8.63;6.13;;;;;;;0.41;87.54;100458.47;5014825;28;20080;-72
2022/04/01 06:19:24;;;;;;;8.18;5.88;;;;;;;0.41;86.78;100477.13;5014731;28;20057;-71
2022/04/01 06:22:04;;;;;;;7.15;5.68;;;;;;;0.42;86.45;100474.28;5014813;28;20462;-72
2022/04/01 06:24:59;;;;;;;7.03;5.38;;;;;;;0.43;86.78;100486.59;5012716;28;20478;-71
2022/04/01 06:27:28;;;;;;;7.75;5.88;;;;;;;0.36;86.38;100477.63;5014468;28;20045;-72
2022/04/01 06:30:06;;;;;;;8.23;5.43;;;;;;;0.31;85.97;100491.44;5014710;28;20034;-72
2022/04/01 06:32:48;;;;;;;7.93;5.90;;;;;;;0.25;86.47;100485.94;5014523;28;20084;-72
2022/04/01 06:35:18;;;;;;;8.02;5.72;;;;;;;0.28;86.41;100497.09;5014539;28;20095;-72
2022/04/01 06:37:57;;;;;;;6.75;5.85;;;;;;;0.34;86.42;100503.56;5013096;28;20026;-71
2022/04/01 06:40:27;;;;;;;7.72;5.80;;;;;;;0.35;86.60;100513.25;5014297;28;20034;-72
2022/04/01 06:42:53;;;;;;;8.07;5.40;;;;;;;0.35;86.18;100497.28;5010374;28;20033;-71
2022/04/01 06:45:19;;;;;;;7.38;5.30;;;;;;;0.29;86.20;100508.59;5023513;28;20155;-72
2022/04/01 06:47:45;;;;;;;8.40;6.07;;;;;;;0.29;85.68;100519.22;5048989;28;20496;-76
2022/04/01 06:50:12;;;;;;;7.38;5.25;;;;;;;0.28;86.16;100526.38;5033619;28;20112;-74
2022/04/01 06:52:39;;;;;;;11.40;5.65;;;;;;;0.28;86.31;100526.38;5033558;28;20045;-72
2022/04/01 06:55:08;;;;;;;6.93;5.07;;;;;;;0.28;86.36;100526.38;5033154;28;20033;-71
2022/04/01 06:57:33;;;;;;;6.75;4.90;;;;;;;0.28;85.38;100525.53;5022712;28;20030;-72
2022/04/01 06:59:59;;;;;;;8.63;4.90;;;;;;;0.25;85.18;100525.88;5013724;28;20036;-72
2022/04/01 07:02:24;;;;;;;7.60;5.20;;;;;;;0.24;85.69;100532.19;5011740;28;20057;-72
2022/04/01 07:04:49;;;;;;;5.68;4.72;;;;;;;0.27;85.97;100534.50;5013699;28;20022;-72
2022/04/01 07:07:14;;;;;;;7.85;5.18;;;;;;;0.28;86.16;100547.66;5012117;28;20038;-72
2022/04/01 07:09:40;;;;;;;9.98;5.68;;;;;;;0.26;85.36;100532.88;5012619;28;20042;-72
2022/04/01 07:12:05;;;;;;;6.57;4.88;;;;;;;0.33;85.53;100549.81;5028994;28;20030;-72
2022/04/01 07:14:31;;;;;;;7.65;4.75;;;;;;;0.30;85.69;100537.69;5012388;28;20038;-72
2022/04/01 07:16:58;;;;;;;8.40;4.75;;;;;;;0.30;85.18;100545.69;5028534;28;20026;-72
2022/04/01 07:19:23;;;;;;;7.55;4.82;;;;;;;0.34;85.08;100559.47;5013438;28;20045;-72
2022/04/01 07:21:48;;;;;;;5.43;4.70;;;;;;;0.38;85.81;100555.50;5013802;28;20113;-72
2022/04/01 07:24:14;;;;;;;5.70;4.65;;;;;;;0.40;85.31;100552.66;5013381;28;20034;-72
2022/04/01 07:26:40;;;;;;;7.05;4.63;;;;;;;0.40;85.60;100569.47;5013359;28;20034;-72
2022/04/01 07:29:06;;;;;;;7.45;4.45;;;;;;;0.38;85.13;100571.47;5013525;28;20160;-72
2022/04/01 07:34:24;;;;;;;5.72;4.57;;;;;;;0.41;85.17;100575.59;5013117;28;20096;-72
2022/04/01 07:36:49;;;;;;;10.13;4.60;;;;;;;0.42;84.13;100578.09;5013050;28;20034;-72
2022/04/01 07:39:15;;;;;;;6.65;4.47;;;;;;;0.42;83.54;100585.25;5013243;28;20462;-72
2022/04/01 07:41:41;;;;;;;8.75;4.65;;;;;;;0.37;85.06;100585.75;5013062;28;20037;-72
2022/04/01 07:44:06;;;;;;;6.78;4.57;;;;;;;0.39;84.61;100598.91;5013034;28;20506;-72
2022/04/01 07:46:32;;;;;;;7.68;4.80;;;;;;;0.36;84.23;100600.06;5013049;28;20032;-72
2022/04/01 07:48:57;;;;;;;7.30;4.90;;;;;;;0.39;84.74;100604.22;5012874;28;20054;-72
2022/04/01 07:51:23;;;;;;;5.88;4.47;;;;;;;0.46;84.66;100605.25;5012433;28;20065;-72
2022/04/01 07:53:48;;;;;;;7.55;4.65;;;;;;;0.48;84.59;100604.09;5013085;28;20044;-72
2022/04/01 07:56:13;;;;;;;8.48;4.70;;;;;;;0.51;85.06;100609.09;5012541;28;20460;-72
2022/04/01 07:58:38;;;;;;;5.95;3.83;;;;;;;0.51;84.74;100605.56;5013105;28;20034;-72
2022/04/01 08:01:04;;;;;;;5.88;4.43;;;;;;;0.52;84.72;100613.38;5010205;28;20026;-72
2022/04/01 08:03:29;;;;;;;5.90;4.47;;;;;;;0.55;84.33;100614.91;5013005;28;20468;-72
2022/04/01 08:05:55;;;;;;;5.45;4.28;;;;;;;0.53;84.07;100607.06;5013000;28;20445;-72
2022/04/01 08:08:20;;;;;;;5.57;4.38;;;;;;;0.50;83.68;100612.72;5011530;28;20100;-72
2022/04/01 08:10:46;;;;;;;7.40;4.60;;;;;;;0.49;84.18;100616.38;5012576;28;20113;-72
2022/04/01 08:13:11;;;;;;;7.97;4.35;;;;;;;0.49;84.60;100624.38;5011671;28;20038;-73
2022/04/01 08:15:37;;;;;;;6.32;4.45;;;;;;;0.50;84.32;100627.88;5011760;28;20038;-73
2022/04/01 08:18:02;;;;;;;8.13;4.32;;;;;;;0.53;84.01;100633.72;5011648;28;20025;-73
2022/04/01 08:20:28;;;;;;;5.72;4.13;;;;;;;0.57;84.21;100633.38;5011895;28;20037;-72
2022/04/01 08:22:53;;;;;;;4.65;3.88;;;;;;;0.61;83.48;100640.03;5011439;28;20038;-72
2022/04/01 08:25:18;;;;;;;6.60;4.38;;;;;;;0.55;83.61;100636.19;5027054;28;20473;-73
2022/04/01 08:27:44;;;;;;;7.72;4.53;;;;;;;0.61;83.78;100650.69;5013040;28;20030;-75
2022/04/01 08:30:10;;;;;;;6.13;4.30;;;;;;;0.62;83.50;100641.69;5012174;28;20038;-73
2022/04/01 08:32:37;;;;;;;6.20;3.95;;;;;;;0.58;83.37;100653.69;5012208;28;20026;-72
2022/04/01 08:35:05;;;;;;;7.63;4.85;;;;;;;0.63;84.28;100659.34;5027744;28;20140;-71
2022/04/01 08:37:30;;;;;;;7.88;4.30;;;;;;;0.65;83.87;100662.66;5007551;28;20041;-73
2022/04/01 08:39:58;;;;;;;6.97;4.43;;;;;;;0.60;83.32;100665.81;5014783;28;20033;-74
2022/04/01 08:42:23;;;;;;;8.65;4.60;;;;;;;0.58;83.51;100680.31;5032172;28;20080;-74
2022/04/01 08:44:49;;;;;;;4.65;3.70;;;;;;;0.60;83.37;100679.13;5031849;28;20029;-75
2022/04/01 08:47:14;;;;;;;7.55;3.72;;;;;;;0.60;83.20;100683.63;5045284;28;20091;-74
2022/04/01 08:49:39;;;;;;;4.20;3.20;;;;;;;0.59;82.11;100696.13;5027327;28;20469;-74
2022/04/01 08:52:05;;;;;;;6.35;3.40;;;;;;;0.58;82.81;100688.31;5027357;28;20125;-74
2022/04/01 08:54:32;;;;;;;5.43;3.58;;;;;;;0.55;81.65;100699.28;5012244;28;20032;-75
2022/04/01 08:56:57;;;;;;;6.63;4.03;;;;;;;0.56;81.66;100695.59;5026844;28;20084;-75
2022/04/01 08:59:27;;;;;;;7.25;3.75;;;;;;;0.58;82.50;100697.13;5012369;28;20041;-75
2022/04/01 09:02:02;;;;;;;7.13;3.55;;;;;;;0.60;82.99;100708.44;5009771;28;20036;-75
2022/04/01 09:04:28;;;;;;;7.97;3.50;;;;;;;0.64;82.38;100704.44;5010565;28;20034;-75
2022/04/01 09:06:53;;;;;;;4.75;3.40;;;;;;;0.67;82.32;100708.63;5012198;28;20440;-75
2022/04/01 09:09:27;;;;;;;8.15;3.40;;;;;;;0.68;82.57;100713.78;5027058;28;20057;-75
2022/04/01 09:12:13;;;;;;;4.82;3.13;;;;;;;0.76;82.24;100715.63;5011744;28;20486;-74
2022/04/01 09:14:41;;;;;;;11.70;3.90;;;;;;;0.81;81.31;100715.97;5010866;28;20484;-76
2022/04/01 09:17:10;;;;;;;4.88;3.70;;;;;;;0.83;82.38;100716.66;5011130;28;20026;-74
2022/04/01 09:19:36;;;;;;;5.38;3.42;;;;;;;0.87;81.71;100725.94;5014192;28;20088;-74
2022/04/01 09:22:34;;;;;;;5.25;3.40;;;;;;;0.92;81.23;100721.97;5015516;28;20033;-74
2022/04/01 09:25:07;;;;;;;6.32;3.75;;;;;;;0.88;82.26;100732.97;4987060;28;20049;-75
2022/04/01 09:27:53;;;;;;;5.90;3.47;;;;;;;0.96;82.30;100723.31;5014560;28;20038;-72
2022/04/01 09:30:27;;;;;;;6.82;3.33;;;;;;;0.97;81.45;100739.13;5015324;28;20421;-72
2022/04/01 09:32:55;;;;;;;3.92;3.53;;;;;;;0.99;82.12;100738.97;5015433;28;20113;-73
2022/04/01 09:35:23;;;;;;;4.93;3.50;;;;;;;0.98;81.32;100739.97;5020115;28;20036;-73
2022/04/01 09:37:58;;;;;;;4.82;3.30;;;;;;;1.02;82.34;100749.28;5020349;28;20432;-73
2022/04/01 09:40:24;;;;;;;6.55;3.53;;;;;;;1.03;81.95;100743.81;5015891;28;20109;-71
2022/04/01 09:42:55;;;;;;;4.03;3.15;;;;;;;1.03;81.78;100742.97;5010288;28;20112;-71
2022/04/01 09:45:29;;;;;;;3.73;3.03;;;;;;;1.06;81.04;100745.31;5015201;28;20121;-73
2022/04/01 09:48:05;;;;;;;4.90;3.08;;;;;;;1.13;80.67;100745.47;4998795;28;20513;-72
2022/04/01 09:50:33;;;;;;;7.70;3.50;;;;;;;1.10;82.28;100749.28;5013332;28;20033;-72
2022/04/01 09:53:22;;;;;;;4.35;2.92;;;;;;;1.15;81.17;100741.66;5014490;28;20060;-74
2022/04/01 09:55:50;;;;;;;8.48;3.03;;;;;;;1.17;80.33;100752.97;5024063;28;20053;-71
2022/04/01 09:58:17;;;;;;;5.50;2.88;;;;;;;1.17;80.88;100744.97;5013311;28;20081;-71
2022/04/01 10:00:44;;;;;;;5.03;2.88;;;;;;;1.20;81.09;100749.16;5012861;28;20029;-72
2022/04/01 10:03:11;;;;;;;3.47;2.83;;;;;;;1.24;80.67;100753.97;5015329;28;20113;-72
2022/04/01 10:05:37;;;;;;;3.85;2.63;;;;;;;1.21;80.30;100756.97;5014939;28;20088;-71
2022/04/01 10:08:05;;;;;;;4.07;2.90;;;;;;;1.17;80.73;100755.63;5014945;28;20034;-72
2022/04/01 10:10:31;;;;;;;6.07;2.90;;;;;;;1.24;80.43;100756.66;5014741;28;20045;-73
2022/04/01 10:13:01;;;;;;;3.97;2.97;;;;;;;1.26;80.81;100759.16;5013369;28;20484;-72
2022/04/01 10:15:29;;;;;;;4.38;2.67;;;;;;;1.24;80.45;100758.50;5014255;28;20066;-72
2022/04/01 10:17:56;;;;;;;2.60;2.40;;;;;;;1.17;79.81;100752.97;5014904;28;20042;-72
2022/04/01 10:20:26;;;;;;;3.42;2.38;;;;;;;1.21;80.83;100758.81;5014621;28;20034;-72
2022/04/01 10:22:52;;;;;;;3.22;2.50;;;;;;;1.27;81.13;100759.97;5013710;28;20084;-72
2022/04/01 10:25:28;;;;;;;3.97;2.72;;;;;;;1.28;80.70;100758.97;5015081;28;20481;-71
2022/04/01 10:27:54;;;;;;;4.43;2.97;;;;;;;1.31;81.15;100759.47;5015902;28;20037;-72
2022/04/01 10:30:24;;;;;;;5.43;2.88;;;;;;;1.39;80.23;100761.31;5016101;28;20088;-72
2022/04/01 10:32:49;;;;;;;5.18;2.88;;;;;;;1.39;79.67;100766.66;5014746;28;20109;-72
2022/04/01 10:35:26;;;;;;;5.50;2.90;;;;;;;1.44;81.41;100772.31;5014334;28;20108;-71
2022/04/01 10:37:54;;;;;;;4.65;3.25;;;;;;;1.46;80.08;100766.81;5013304;28;20033;-72
2022/04/01 10:40:19;;;;;;;4.03;2.75;;;;;;;1.47;80.33;100758.66;5013948;28;20034;-73
2022/04/01 10:42:47;;;;;;;3.78;2.60;;;;;;;1.52;81.20;100766.97;5014309;28;20084;-72
2022/04/01 10:45:16;;;;;;;6.53;3.55;;;;;;;1.54;80.06;100770.31;5013287;28;20045;-71
2022/04/01 10:53:51;;;;;;;7.60;3.35;;;;;;;1.56;81.29;100770.97;4994365;28;20049;-72
2022/04/01 10:56:22;;;;;;;6.28;3.83;;;;;;;1.67;79.55;100776.97;5043987;28;20117;-70
2022/04/01 10:59:07;;;;;;;11.23;3.60;;;;;;;1.64;78.93;100779.97;5014153;28;20034;-72
2022/04/01 11:01:35;;;;;;;5.85;3.50;;;;;;;1.62;79.66;100780.13;5011127;28;20028;-72
2022/04/01 11:04:13;;;;;;;7.03;3.80;;;;;;;1.65;79.93;100786.97;5013293;28;20145;-72
2022/04/01 11:06:58;;;;;;;5.60;3.60;;;;;;;1.70;80.18;100788.13;5013864;28;20088;-73
2022/04/01 11:09:47;;;;;;;6.97;3.58;;;;;;;1.77;80.44;100790.97;5013968;28;20092;-72
2022/04/01 11:12:15;;;;;;;7.18;3.95;;;;;;;1.76;78.83;100797.28;5013961;28;20030;-72
2022/04/01 11:15:08;;;;;;;10.85;4.43;;;;;;;1.77;78.73;100794.47;5013981;28;20497;-72
2022/04/01 11:17:34;;;;;;;4.00;3.40;;;;;;;1.71;77.92;100795.13;5013414;28;20496;-73
2022/04/01 11:20:10;;;;;;;5.78;4.00;;;;;;;1.71;77.04;100802.31;5013386;28;20173;-71
2022/04/01 11:22:36;;;;;;;10.05;4.43;;;;;;;1.68;76.49;100791.97;5012793;28;20029;-69
2022/04/01 11:25:03;;;;;;;7.18;4.20;;;;;;;1.68;76.91;100802.66;5013450;28;20025;-70
2022/04/01 11:27:28;;;;;;;9.25;4.70;;;;;;;1.70;78.19;100800.63;5015619;28;20097;-72
2022/04/01 11:30:06;;;;;;;6.10;4.10;;;;;;;1.72;77.39;100803.97;5033307;28;20109;-72
2022/04/01 11:32:34;;;;;;;7.93;4.05;;;;;;;1.75;77.93;100806.28;5010751;28;20105;-71
2022/04/01 11:34:59;;;;;;;6.88;4.22;;;;;;;1.79;79.06;100812.13;5007003;28;20038;-73
2022/04/01 11:37:26;;;;;;;6.10;3.60;;;;;;;1.83;76.42;100816.13;5013192;28;20033;-73
2022/04/01 11:39:51;;;;;;;6.53;3.83;;;;;;;1.76;77.84;100810.63;5013093;28;20033;-73
2022/04/01 11:42:17;;;;;;;6.43;4.15;;;;;;;1.74;77.90;100804.66;5013123;28;20042;-73
2022/04/01 11:44:56;;;;;;;6.47;4.00;;;;;;;1.81;76.99;100813.63;5011570;28;20033;-73
2022/04/01 11:47:27;;;;;;;5.90;4.35;;;;;;;1.85;77.95;100814.13;5012459;28;20025;-72
2022/04/01 11:50:06;;;;;;;7.05;4.28;;;;;;;1.85;77.69;100804.28;5013230;28;20034;-73
2022/04/01 11:52:42;;;;;;;10.27;4.68;;;;;;;1.92;78.66;100810.63;5012765;28;20465;-73
2022/04/01 11:55:22;;;;;;;5.20;4.20;;;;;;;1.97;77.86;100814.63;5012649;28;20037;-73
2022/04/01 11:57:49;;;;;;;5.57;4.40;;;;;;;1.94;77.44;100811.28;5015258;28;20038;-73